Time;durP1;ratioP1;P1;durP2;ratioP2;P2;SDS_P1;SDS_P2;PMS_P1;PMS_P2;Temp;Humidity;BMP_temperature;BMP_pressure;BME280_temperature;BME280_humidity;BME280_pressure;Samples;Min_cycle;Max_cycle;Signal;HPM_P1;HPM_P2
2022/08/12 00:44:55;;;;;;;3.80;2.72;;;20.30;99.90;;;;;;5075873;28;20187;-73
2022/08/12 00:47:21;;;;;;;4.07;2.05;;;20.30;99.90;;;;;;5076233;28;20040;-73
2022/08/12 00:49:48;;;;;;;3.63;2.47;;;20.20;99.90;;;;;;5074965;28;20118;-73
2022/08/12 00:52:16;;;;;;;4.90;3.08;;;20.20;99.90;;;;;;5075797;28;20127;-73
2022/08/12 00:54:50;;;;;;;5.63;2.47;;;20.20;99.90;;;;;;5075682;28;20049;-73
2022/08/12 00:57:34;;;;;;;4.05;3.03;;;20.10;99.90;;;;;;5074310;28;20484;-73
2022/08/12 01:00:21;;;;;;;4.28;3.15;;;20.10;99.90;;;;;;5075672;28;20052;-73
2022/08/12 01:02:58;;;;;;;4.25;2.90;;;20.10;99.90;;;;;;5073970;28;20464;-72
2022/08/12 01:11:29;;;;;;;4.30;3.25;;;20.00;99.90;;;;;;5053079;28;20057;-73
2022/08/12 01:13:57;;;;;;;3.80;3.03;;;20.00;99.90;;;;;;5036829;28;20063;-73
2022/08/12 01:16:24;;;;;;;3.35;3.05;;;19.90;99.90;;;;;;5057569;28;20056;-73
2022/08/12 01:18:52;;;;;;;6.43;3.33;;;19.90;99.90;;;;;;5075394;28;20052;-73
2022/08/12 01:22:12;;;;;;;4.13;3.25;;;19.90;99.90;;;;;;5075151;28;20044;-73
2022/08/12 01:24:45;;;;;;;3.50;3.00;;;19.90;99.90;;;;;;5052933;28;20044;-73
2022/08/12 01:27:14;;;;;;;4.38;3.53;;;19.80;99.90;;;;;;5053145;28;20072;-73
2022/08/12 01:29:42;;;;;;;4.82;3.60;;;19.80;99.90;;;;;;5067098;28;20052;-73
2022/08/12 01:32:13;;;;;;;4.45;3.22;;;19.80;99.90;;;;;;5075257;28;20040;-73
2022/08/12 01:34:44;;;;;;;5.35;3.70;;;19.80;99.90;;;;;;5075072;28;20053;-73
2022/08/12 01:37:12;;;;;;;4.60;3.30;;;19.80;99.90;;;;;;5074488;28;20041;-72
2022/08/12 01:39:51;;;;;;;5.78;3.67;;;19.70;99.90;;;;;;5074699;28;20053;-72
2022/08/12 01:42:21;;;;;;;5.88;3.50;;;19.70;99.90;;;;;;5074448;28;20497;-73
2022/08/12 01:44:48;;;;;;;4.30;3.83;;;19.70;99.90;;;;;;5073643;28;20052;-73
2022/08/12 01:47:41;;;;;;;7.30;3.80;;;19.70;99.90;;;;;;5074486;28;20495;-73
2022/08/12 01:50:39;;;;;;;6.25;3.97;;;19.70;99.90;;;;;;5074816;28;20045;-73
2022/08/12 01:53:10;;;;;;;6.78;3.83;;;19.70;99.90;;;;;;5074919;28;20045;-73
2022/08/12 01:55:44;;;;;;;4.75;3.80;;;19.60;99.90;;;;;;5074619;28;20102;-73
2022/08/12 01:59:44;;;;;;;5.47;3.92;;;19.60;99.90;;;;;;5073710;28;20071;-73
2022/08/12 02:01:22;;;;;;;7.30;4.03;;;19.60;99.90;;;;;;5074192;28;20086;-73
2022/08/12 02:13:31;;;;;;;5.20;4.70;;;19.40;99.90;;;;;;5073431;28;20117;-72
2022/08/12 02:16:29;;;;;;;5.57;4.03;;;19.40;99.90;;;;;;5074744;28;20052;-72
2022/08/12 02:19:33;;;;;;;5.15;4.38;;;19.40;99.90;;;;;;5067477;28;20052;-72
2022/08/12 02:22:25;;;;;;;6.32;4.03;;;19.40;99.90;;;;;;5073975;28;20400;-73
2022/08/12 02:24:55;;;;;;;6.47;5.10;;;19.30;99.90;;;;;;5073095;28;20218;-73
2022/08/12 02:27:23;;;;;;;6.00;4.18;;;19.30;99.90;;;;;;5073036;28;20055;-72
2022/08/12 02:29:49;;;;;;;7.10;3.50;;;19.20;99.90;;;;;;5072833;28;20199;-73
2022/08/12 02:32:15;;;;;;;6.53;4.03;;;19.20;99.90;;;;;;5072386;28;20528;-72
2022/08/12 02:34:43;;;;;;;4.20;3.38;;;19.20;99.90;;;;;;5072424;28;20404;-72
2022/08/12 02:37:14;;;;;;;5.30;3.80;;;19.10;99.90;;;;;;5072520;28;20048;-72
2022/08/12 02:39:44;;;;;;;5.10;3.85;;;;;;;;;;5073578;28;20500;-72
2022/08/12 02:42:13;;;;;;;4.10;3.70;;;19.10;99.90;;;;;;5073742;28;20082;-72
2022/08/12 02:44:42;;;;;;;3.88;3.38;;;19.10;99.90;;;;;;5073552;28;20048;-72
2022/08/12 02:47:09;;;;;;;4.03;3.53;;;19.00;99.90;;;;;;5072432;28;20051;-72
2022/08/12 02:49:43;;;;;;;5.45;3.60;;;19.00;99.90;;;;;;5073749;28;20036;-72
2022/08/12 02:52:11;;;;;;;5.43;4.00;;;19.00;99.90;;;;;;5073981;28;20443;-72
2022/08/12 02:54:39;;;;;;;4.45;4.00;;;19.00;99.90;;;;;;5073529;28;20131;-72
2022/08/12 02:57:05;;;;;;;5.78;4.38;;;18.90;99.90;;;;;;5073470;28;20054;-73
2022/08/12 02:59:34;;;;;;;5.60;3.80;;;18.90;99.90;;;;;;5072401;28;20139;-72
2022/08/12 03:02:04;;;;;;;5.53;3.80;;;18.90;99.90;;;;;;5073736;28;20070;-72
2022/08/12 03:04:38;;;;;;;7.85;4.10;;;18.90;99.90;;;;;;5073787;28;20132;-72
2022/08/12 03:07:23;;;;;;;5.80;4.03;;;18.90;99.90;;;;;;5073344;28;20052;-72
2022/08/12 03:09:54;;;;;;;6.28;3.50;;;18.80;99.90;;;;;;5073407;28;20102;-73
2022/08/12 03:12:21;;;;;;;6.28;4.05;;;18.80;99.90;;;;;;5073645;28;20063;-73
2022/08/12 03:14:50;;;;;;;4.88;4.22;;;18.80;99.90;;;;;;5073320;28;20515;-72
2022/08/12 03:17:31;;;;;;;6.13;3.83;;;18.80;99.90;;;;;;5072270;28;20080;-72
2022/08/12 03:19:57;;;;;;;5.10;3.85;;;18.70;99.90;;;;;;5073251;28;20070;-72
2022/08/12 03:22:25;;;;;;;7.93;3.88;;;18.70;99.90;;;;;;5072153;28;20044;-72
2022/08/12 03:24:50;;;;;;;6.20;3.80;;;18.70;99.90;;;;;;5072161;28;20463;-73
2022/08/12 03:27:17;;;;;;;6.20;4.38;;;18.70;99.90;;;;;;5073373;28;20080;-72
2022/08/12 03:29:49;;;;;;;5.68;3.90;;;18.70;99.90;;;;;;5072405;28;20073;-72
2022/08/12 03:32:17;;;;;;;5.25;3.53;;;18.60;99.90;;;;;;5073192;28;20127;-72
2022/08/12 03:34:48;;;;;;;4.53;4.03;;;18.60;99.90;;;;;;5073048;28;20089;-72
2022/08/12 03:37:14;;;;;;;6.43;4.88;;;18.60;99.90;;;;;;5072892;28;20439;-72
2022/08/12 03:39:42;;;;;;;5.20;4.00;;;18.60;99.90;;;;;;5073294;28;20041;-72
2022/08/12 03:42:39;;;;;;;6.05;3.50;;;18.50;99.90;;;;;;5073048;28;20044;-72
2022/08/12 04:01:56;;;;;;;6.03;3.67;;;18.40;99.90;;;;;;5076545;28;20086;-73
2022/08/12 04:04:24;;;;;;;4.43;3.75;;;18.40;99.90;;;;;;5076767;28;20068;-73
2022/08/12 04:06:50;;;;;;;5.10;3.63;;;18.40;99.90;;;;;;5075810;28;20496;-73
2022/08/12 04:09:20;;;;;;;5.65;3.83;;;18.40;99.90;;;;;;5075980;28;20091;-73
2022/08/12 04:14:30;;;;;;;4.85;3.50;;;18.30;99.90;;;;;;5076271;28;20049;-73
2022/08/12 04:16:56;;;;;;;5.53;3.72;;;18.30;99.90;;;;;;5075287;28;20056;-73
2022/08/12 04:19:23;;;;;;;5.35;3.70;;;18.30;99.90;;;;;;5076358;28;20088;-72
2022/08/12 04:21:49;;;;;;;5.65;3.83;;;18.30;99.90;;;;;;5076691;28;20046;-72
2022/08/12 04:24:17;;;;;;;5.40;3.55;;;18.30;99.90;;;;;;5074995;28;20089;-72
2022/08/12 04:26:42;;;;;;;5.45;4.03;;;18.20;99.90;;;;;;5075048;28;20087;-73
2022/08/12 04:29:09;;;;;;;7.25;4.10;;;18.20;99.90;;;;;;5075015;28;20041;-72
2022/08/12 04:31:36;;;;;;;7.05;4.68;;;18.20;99.90;;;;;;5076187;28;20373;-72
2022/08/12 04:34:03;;;;;;;6.45;4.47;;;18.20;99.90;;;;;;5076137;28;20041;-72
2022/08/12 04:36:30;;;;;;;4.95;4.07;;;18.20;99.90;;;;;;5074976;28;20053;-73
2022/08/12 04:38:57;;;;;;;4.68;3.97;;;18.20;99.90;;;;;;5075678;28;20131;-74
2022/08/12 04:41:26;;;;;;;4.50;4.10;;;18.20;99.90;;;;;;5074654;28;20048;-73
2022/08/12 04:43:53;;;;;;;5.82;3.92;;;18.20;99.90;;;;;;5075615;28;20082;-72
2022/08/12 04:46:19;;;;;;;4.32;3.80;;;18.20;99.90;;;;;;5074972;28;20084;-73
2022/08/12 04:48:45;;;;;;;6.95;4.30;;;18.20;99.90;;;;;;5076266;28;20087;-73
2022/08/12 04:51:12;;;;;;;6.97;4.47;;;18.20;99.90;;;;;;5075805;28;20496;-72
2022/08/12 04:53:39;;;;;;;6.70;3.78;;;18.20;99.90;;;;;;5074701;28;20041;-73
2022/08/12 04:56:06;;;;;;;6.82;3.55;;;18.20;99.90;;;;;;5057784;28;20059;-72
2022/08/12 04:58:33;;;;;;;3.67;3.35;;;18.20;99.90;;;;;;5057634;28;20455;-72
2022/08/12 05:00:59;;;;;;;5.78;4.25;;;18.20;99.90;;;;;;5074508;28;20044;-73
2022/08/12 05:03:26;;;;;;;4.07;3.25;;;18.20;99.90;;;;;;5074032;28;20135;-72
2022/08/12 05:05:55;;;;;;;4.32;3.47;;;18.20;99.90;;;;;;5075465;28;20085;-73
2022/08/12 05:08:22;;;;;;;4.55;3.50;;;18.20;99.90;;;;;;5075057;28;20098;-72
2022/08/12 05:10:49;;;;;;;5.05;3.30;;;18.20;99.90;;;;;;5075211;28;20131;-72
2022/08/12 05:13:44;;;;;;;5.22;2.92;;;18.20;99.90;;;;;;5075139;28;20049;-72
2022/08/12 05:16:10;;;;;;;4.32;2.72;;;18.30;99.90;;;;;;5065789;28;20057;-73
2022/08/12 05:18:37;;;;;;;3.78;2.83;;;18.30;99.90;;;;;;5057410;28;20083;-72
2022/08/12 05:21:04;;;;;;;5.20;2.70;;;18.40;99.90;;;;;;5075105;28;20076;-72
2022/08/12 05:23:30;;;;;;;3.47;2.33;;;18.40;99.90;;;;;;5074850;28;20093;-72
2022/08/12 05:25:57;;;;;;;4.63;2.47;;;18.40;99.90;;;;;;5075399;28;20044;-72
2022/08/12 05:28:29;;;;;;;2.72;2.20;;;18.50;99.90;;;;;;5075193;28;20052;-72
2022/08/12 05:30:56;;;;;;;4.60;2.35;;;18.50;99.90;;;;;;5075058;28;20051;-72
2022/08/12 05:33:30;;;;;;;5.20;2.38;;;18.60;99.90;;;;;;5074922;28;20130;-73
2022/08/12 05:35:56;;;;;;;2.97;2.00;;;18.60;99.90;;;;;;5073705;28;20048;-72
2022/08/12 05:41:17;;;;;;;3.47;2.15;;;18.70;99.90;;;;;;5075202;28;20138;-73
2022/08/12 05:43:48;;;;;;;6.05;2.05;;;18.80;99.90;;;;;;5073402;28;20037;-72
2022/08/12 05:46:14;;;;;;;3.25;1.92;;;18.80;99.90;;;;;;5074901;28;20173;-73
2022/08/12 05:48:40;;;;;;;5.28;2.05;;;18.90;99.90;;;;;;5074421;28;20076;-72
2022/08/12 05:51:07;;;;;;;3.83;2.40;;;18.90;99.90;;;;;;5057210;28;20048;-72
2022/08/12 05:53:33;;;;;;;4.10;2.00;;;19.00;99.90;;;;;;5056829;28;20056;-72
2022/08/12 05:55:58;;;;;;;3.85;2.08;;;19.00;99.90;;;;;;5074594;28;20078;-72
2022/08/12 05:58:25;;;;;;;3.25;1.90;;;19.00;99.90;;;;;;5074370;28;20107;-72
2022/08/12 06:00:50;;;;;;;4.20;2.10;;;19.10;99.90;;;;;;5074486;28;20040;-72
2022/08/12 06:03:16;;;;;;;3.95;2.00;;;19.10;99.90;;;;;;5074145;28;20079;-72
2022/08/12 06:05:44;;;;;;;4.88;2.50;;;19.20;99.90;;;;;;5074390;28;20048;-72
2022/08/12 06:08:10;;;;;;;3.70;1.92;;;19.20;99.90;;;;;;5073312;28;20121;-72
2022/08/12 06:10:36;;;;;;;3.20;2.38;;;19.20;99.90;;;;;;5074465;28;20055;-72
2022/08/12 06:13:06;;;;;;;5.18;2.00;;;19.30;99.90;;;;;;5074152;28;20040;-72
2022/08/12 06:15:36;;;;;;;3.63;2.10;;;19.30;99.90;;;;;;5074057;28;20076;-72
2022/08/12 06:18:07;;;;;;;3.35;2.10;;;19.40;99.90;;;;;;5073185;28;20087;-72
2022/08/12 06:20:34;;;;;;;5.18;2.30;;;19.40;99.90;;;;;;5073862;28;20051;-73
2022/08/12 06:23:00;;;;;;;3.58;1.90;;;19.40;99.90;;;;;;5073571;28;20047;-74
2022/08/12 06:25:29;;;;;;;4.15;2.25;;;19.50;99.90;;;;;;5073186;28;20087;-73
2022/08/12 06:28:01;;;;;;;3.63;2.17;;;19.50;99.90;;;;;;5073588;28;20052;-73
2022/08/12 06:30:28;;;;;;;4.38;2.55;;;19.60;99.90;;;;;;5073694;28;20045;-73
2022/08/12 06:32:54;;;;;;;5.68;2.20;;;19.60;99.90;;;;;;5071445;28;20053;-73
2022/08/12 06:35:20;;;;;;;3.03;2.22;;;19.60;99.90;;;;;;5071636;28;20045;-73
2022/08/12 06:37:48;;;;;;;3.60;2.47;;;19.70;99.90;;;;;;5072303;28;20044;-73
2022/08/12 06:42:46;;;;;;;4.22;2.75;;;19.70;99.90;;;;;;5073312;28;20131;-73
2022/08/12 06:43:04;;;;;;;5.78;2.70;;;19.80;99.90;;;;;;5073652;28;20040;-73
2022/08/12 06:45:30;;;;;;;3.63;2.08;;;19.80;99.90;;;;;;5072160;28;20131;-73
2022/08/12 06:47:58;;;;;;;2.95;1.77;;;19.80;99.90;;;;;;5075700;28;20063;-73
2022/08/12 06:50:26;;;;;;;4.95;2.15;;;19.90;99.90;;;;;;5071641;28;20036;-72
2022/08/12 06:52:52;;;;;;;5.57;2.10;;;19.90;99.90;;;;;;5073190;28;20048;-74
2022/08/12 06:55:19;;;;;;;3.65;1.95;;;20.00;99.90;;;;;;5072130;28;20048;-73
2022/08/12 06:57:53;;;;;;;2.65;1.80;;;20.00;99.90;;;;;;5071244;28;20055;-73
2022/08/12 07:00:29;;;;;;;5.50;2.40;;;20.10;99.90;;;;;;5071178;28;20049;-72
2022/08/12 07:02:56;;;;;;;3.90;2.38;;;20.10;99.90;;;;;;5073419;28;20092;-72
2022/08/12 07:05:25;;;;;;;4.07;2.00;;;20.20;99.90;;;;;;5073506;28;20052;-73
2022/08/12 07:07:57;;;;;;;4.75;2.10;;;20.20;99.90;;;;;;5072903;28;20064;-73
2022/08/12 07:10:23;;;;;;;4.97;1.67;;;20.30;99.90;;;;;;5072551;28;20448;-72
2022/08/12 07:12:55;;;;;;;2.55;1.70;;;20.40;99.90;;;;;;5073628;28;20119;-72
2022/08/12 07:15:23;;;;;;;3.10;1.90;;;20.40;99.90;;;;;;5065929;28;20044;-72
2022/08/12 07:17:59;;;;;;;2.75;1.90;;;20.50;99.90;;;;;;5066278;28;20052;-74
2022/08/12 07:20:29;;;;;;;4.13;1.73;;;20.60;99.90;;;;;;5074032;28;20123;-73
2022/08/12 07:22:55;;;;;;;3.78;2.50;;;20.70;99.90;;;;;;5075347;28;20120;-73
2022/08/12 07:25:30;;;;;;;4.00;2.15;;;20.80;99.90;;;;;;5076703;28;20049;-75
2022/08/12 07:28:00;;;;;;;3.67;2.30;;;20.80;99.90;;;;;;5074060;28;20103;-75
2022/08/12 07:30:36;;;;;;;6.93;2.13;;;20.90;99.90;;;;;;5076530;28;20127;-71
2022/08/12 07:33:03;;;;;;;3.60;2.78;;;21.00;99.90;;;;;;5066737;28;20044;-71
2022/08/12 07:35:31;;;;;;;3.97;2.10;;;21.00;99.90;;;;;;5067676;28;20450;-71
2022/08/12 07:37:59;;;;;;;4.93;2.45;;;21.10;99.90;;;;;;5047193;28;20182;-71
2022/08/12 07:40:26;;;;;;;6.75;2.28;;;21.10;99.90;;;;;;5066483;28;20040;-71
2022/08/12 07:42:53;;;;;;;3.80;2.45;;;21.20;99.90;;;;;;5062877;28;20052;-72
2022/08/12 07:45:19;;;;;;;7.75;2.35;;;21.20;99.90;;;;;;5036547;28;20078;-72
2022/08/12 07:47:46;;;;;;;6.07;2.53;;;21.30;99.90;;;;;;5067190;28;20047;-72
2022/08/12 07:50:14;;;;;;;4.47;2.30;;;21.40;99.90;;;;;;5068572;28;20147;-73
2022/08/12 07:52:42;;;;;;;2.60;2.20;;;21.40;99.90;;;;;;5069090;28;20045;-71
2022/08/12 07:55:09;;;;;;;2.67;2.13;;;21.50;99.90;;;;;;5044513;28;20127;-71
2022/08/12 07:57:52;;;;;;;3.60;2.28;;;21.60;99.90;;;;;;5068946;28;20083;-75
2022/08/12 08:00:18;;;;;;;3.00;1.80;;;21.60;99.90;;;;;;5065809;28;20045;-72
2022/08/12 08:02:44;;;;;;;3.60;2.30;;;21.70;99.90;;;;;;5091967;28;20061;-74
2022/08/12 08:05:10;;;;;;;2.67;1.88;;;21.80;99.90;;;;;;5077254;28;20056;-72
2022/08/12 08:07:37;;;;;;;5.55;2.20;;;21.80;99.90;;;;;;5064498;28;20053;-72
2022/08/12 08:10:09;;;;;;;5.20;2.15;;;21.90;99.90;;;;;;5067058;28;20074;-72
2022/08/12 08:12:54;;;;;;;3.47;2.08;;;22.00;99.90;;;;;;5048698;28;20523;-73
2022/08/12 08:15:38;;;;;;;3.88;2.22;;;22.00;99.90;;;;;;5065042;28;20450;-72
2022/08/12 08:18:09;;;;;;;3.60;1.80;;;22.10;99.90;;;;;;5061394;28;20044;-73
2022/08/12 08:20:42;;;;;;;7.57;2.35;;;22.20;99.90;;;;;;5066746;28;20052;-72
2022/08/12 08:23:09;;;;;;;;;;;22.20;99.90;;;;;;5068782;28;20083;-73
2022/08/12 08:25:37;;;;;;;3.85;1.77;;;22.30;99.90;;;;;;5067514;28;19924;-72
2022/08/12 08:28:12;;;;;;;2.58;1.65;;;22.30;99.90;;;;;;5069008;28;20056;-72
2022/08/12 08:30:43;;;;;;;3.25;1.88;;;22.40;99.90;;;;;;5063465;28;20049;-72
2022/08/12 08:33:10;;;;;;;4.28;1.30;;;22.50;99.90;;;;;;5068657;28;20049;-73
2022/08/12 08:35:41;;;;;;;2.55;1.70;;;22.60;99.90;;;;;;5067790;28;20128;-72
2022/08/12 08:38:12;;;;;;;2.85;1.55;;;22.60;99.90;;;;;;5068036;28;20059;-72
2022/08/12 08:43:26;;;;;;;3.90;1.80;;;22.80;99.90;;;;;;5080703;28;20048;-73
2022/08/12 08:45:53;;;;;;;4.80;1.52;;;22.80;99.90;;;;;;5046368;28;20375;-73
2022/08/12 08:48:20;;;;;;;3.65;1.58;;;22.90;99.90;;;;;;5066851;28;20080;-72
2022/08/12 08:50:46;;;;;;;4.72;2.03;;;23.00;99.90;;;;;;5067484;28;20049;-72
2022/08/12 08:53:12;;;;;;;3.05;1.45;;;23.00;99.90;;;;;;5051291;28;20196;-72
2022/08/12 08:55:39;;;;;;;3.28;1.65;;;23.10;99.90;;;;;;5068518;28;20110;-72
2022/08/12 08:58:07;;;;;;;4.35;1.65;;;23.20;99.90;;;;;;5069611;28;20055;-73
2022/08/12 09:00:33;;;;;;;10.68;1.95;;;23.30;99.90;;;;;;5049472;28;20063;-73
2022/08/12 09:03:03;;;;;;;2.47;1.63;;;23.30;99.90;;;;;;5068737;28;20131;-73
2022/08/12 09:05:29;;;;;;;1.90;1.60;;;23.40;99.90;;;;;;5049872;28;20041;-73
2022/08/12 09:07:58;;;;;;;3.30;1.63;;;23.50;99.90;;;;;;5049940;28;20078;-73
2022/08/12 09:10:23;;;;;;;4.47;1.55;;;23.60;99.90;;;;;;5052064;28;20070;-73
2022/08/12 09:15:35;;;;;;;1.80;1.33;;;23.70;99.90;;;;;;5053776;28;20049;-73
2022/08/12 09:18:05;;;;;;;5.30;2.05;;;23.90;99.90;;;;;;5065472;28;20044;-73
2022/08/12 09:20:32;;;;;;;2.63;1.75;;;24.00;99.90;;;;;;5081010;28;20486;-73
2022/08/12 09:23:00;;;;;;;1.63;1.40;;;24.10;99.90;;;;;;5052558;28;20053;-74
2022/08/12 09:25:27;;;;;;;2.42;1.38;;;24.20;99.90;;;;;;5066743;28;20051;-73
2022/08/12 09:27:53;;;;;;;3.75;1.52;;;24.30;99.90;;;;;;5067498;28;20403;-73
2022/08/12 09:30:20;;;;;;;4.18;1.60;;;24.40;99.90;;;;;;5065234;28;20056;-73
2022/08/12 09:32:50;;;;;;;3.13;1.73;;;24.40;99.90;;;;;;5045088;28;20049;-73
2022/08/12 09:35:22;;;;;;;3.55;1.80;;;24.50;99.90;;;;;;5064829;28;20036;-73
2022/08/12 09:37:49;;;;;;;2.38;1.48;;;24.60;99.90;;;;;;5066835;28;20123;-73
2022/08/12 09:40:16;;;;;;;3.70;1.60;;;24.60;99.90;;;;;;5050182;28;20087;-73
2022/08/12 09:45:30;;;;;;;3.30;1.70;;;24.80;99.00;;;;;;5057145;28;20106;-72
2022/08/12 09:47:58;;;;;;;4.60;1.70;;;24.90;98.40;;;;;;5061072;28;20091;-74
2022/08/12 09:50:24;;;;;;;4.68;1.55;;;25.00;97.70;;;;;;5082840;28;20056;-72
2022/08/12 09:53:14;;;;;;;4.53;1.35;;;25.10;97.30;;;;;;5061936;28;20084;-73
2022/08/12 09:55:46;;;;;;;3.13;1.40;;;25.20;97.80;;;;;;5064720;28;20051;-73
2022/08/12 09:58:15;;;;;;;6.45;1.70;;;25.20;96.50;;;;;;5066249;28;20055;-74
2022/08/12 10:00:45;;;;;;;2.10;1.42;;;25.30;95.30;;;;;;5048204;28;20060;-74
2022/08/12 10:03:13;;;;;;;6.38;1.45;;;25.40;93.40;;;;;;5062750;28;20059;-74
2022/08/12 10:05:44;;;;;;;2.80;1.50;;;25.50;93.20;;;;;;5046966;28;20048;-74
2022/08/12 10:08:12;;;;;;;3.05;1.17;;;25.60;92.70;;;;;;5064967;28;20040;-75
2022/08/12 10:13:40;;;;;;;2.55;1.42;;;25.70;92.00;;;;;;5065170;28;20056;-73
2022/08/12 10:16:11;;;;;;;2.78;1.55;;;25.80;91.50;;;;;;5067133;28;20048;-76
2022/08/12 10:18:40;;;;;;;3.20;1.60;;;26.00;99.90;;;;;;5062195;28;20118;-73
2022/08/12 10:21:15;;;;;;;3.15;1.50;;;25.80;91.50;;;;;;5046461;28;20099;-74
2022/08/12 10:23:43;;;;;;;6.55;1.25;;;26.00;90.30;;;;;;5060895;28;20048;-73
2022/08/12 10:31:40;;;;;;;1.75;1.17;;;26.20;86.10;;;;;;5067158;28;20048;-73
2022/08/12 10:34:09;;;;;;;1.75;1.25;;;26.20;87.20;;;;;;5073065;28;20036;-73
2022/08/12 10:36:38;;;;;;;4.45;1.30;;;26.20;86.30;;;;;;5053404;28;20127;-73
2022/08/12 10:39:05;;;;;;;3.05;1.38;;;26.30;85.60;;;;;;5054976;28;20048;-73
2022/08/12 10:44:15;;;;;;;3.42;1.20;;;26.40;81.30;;;;;;5057757;28;20047;-74
2022/08/12 10:46:41;;;;;;;2.20;1.15;;;26.50;79.40;;;;;;5071841;28;20044;-73
2022/08/12 10:49:10;;;;;;;1.50;1.30;;;26.80;81.40;;;;;;5055442;28;20084;-73
2022/08/12 10:51:36;;;;;;;2.30;1.20;;;26.60;78.80;;;;;;5072087;28;20047;-73
2022/08/12 10:54:02;;;;;;;3.25;1.23;;;26.70;78.40;;;;;;5071527;28;20059;-73
2022/08/12 10:56:34;;;;;;;1.77;1.30;;;26.70;77.70;;;;;;5071960;28;20473;-74
2022/08/12 10:59:00;;;;;;;2.55;1.10;;;26.90;76.70;;;;;;5073105;28;20120;-73
2022/08/12 11:01:27;;;;;;;2.53;1.10;;;26.90;76.20;;;;;;5072721;28;20126;-73
2022/08/12 11:03:54;;;;;;;5.10;1.10;;;26.90;75.70;;;;;;5055061;28;20385;-73
2022/08/12 11:06:20;;;;;;;1.45;1.00;;;27.00;74.80;;;;;;5073017;28;20082;-73
2022/08/12 11:08:47;;;;;;;4.00;1.20;;;27.00;73.30;;;;;;5054945;28;20048;-73
2022/08/12 11:11:16;;;;;;;2.13;1.08;;;27.10;72.70;;;;;;5070192;28;20045;-74
2022/08/12 11:13:45;;;;;;;1.92;0.80;;;27.10;72.80;;;;;;5072724;28;20048;-73
2022/08/12 11:16:12;;;;;;;3.45;1.10;;;27.10;71.40;;;;;;5072670;28;20048;-73
2022/08/12 11:18:38;;;;;;;2.63;0.98;;;27.20;71.00;;;;;;5071880;28;20045;-73
2022/08/12 11:21:04;;;;;;;1.98;1.00;;;27.20;70.50;;;;;;5071721;28;20407;-73
2022/08/12 11:23:30;;;;;;;5.60;1.17;;;27.20;71.50;;;;;;5072615;28;20037;-74
2022/08/12 11:25:56;;;;;;;2.78;1.10;;;27.30;71.10;;;;;;5072762;28;20047;-74
2022/08/12 11:28:22;;;;;;;1.48;0.95;;;27.30;71.20;;;;;;5054781;28;20098;-74
2022/08/12 11:30:47;;;;;;;3.53;1.20;;;27.30;71.70;;;;;;5071039;28;20186;-73
2022/08/12 11:33:13;;;;;;;1.00;0.90;;;27.40;71.10;;;;;;5051174;28;20401;-74
2022/08/12 11:35:42;;;;;;;1.25;0.90;;;27.40;70.20;;;;;;5071273;28;20044;-77
2022/08/12 11:38:09;;;;;;;3.08;1.00;;;27.40;67.90;;;;;;5071595;28;20462;-74
2022/08/12 11:40:36;;;;;;;1.35;0.95;;;27.60;69.60;;;;;;5071174;28;20513;-73
2022/08/12 11:43:01;;;;;;;1.17;1.00;;;27.50;67.90;;;;;;5071806;28;20037;-73
2022/08/12 11:45:28;;;;;;;0.88;0.80;;;27.50;66.50;;;;;;5071491;28;20077;-73
2022/08/12 11:47:55;;;;;;;1.42;0.70;;;27.50;66.50;;;;;;5070639;28;20052;-74
2022/08/12 11:50:22;;;;;;;3.47;1.00;;;27.60;66.20;;;;;;5054991;28;20059;-73
2022/08/12 11:52:49;;;;;;;0.98;0.80;;;27.60;66.10;;;;;;5070706;28;20427;-73
2022/08/12 11:55:15;;;;;;;1.85;0.90;;;27.60;65.30;;;;;;5072290;28;20044;-74
2022/08/12 11:57:52;;;;;;;4.07;0.90;;;27.70;64.90;;;;;;5070619;28;20128;-73
2022/08/12 12:00:19;;;;;;;1.20;0.80;;;27.70;65.70;;;;;;5070502;28;20083;-74
2022/08/12 12:02:45;;;;;;;2.38;0.75;;;27.80;65.30;;;;;;5054164;28;20052;-74
2022/08/12 12:05:13;;;;;;;1.27;0.95;;;27.70;64.60;;;;;;5071153;28;20571;-74
2022/08/12 12:07:41;;;;;;;1.23;0.80;;;27.80;64.40;;;;;;5074385;28;20094;-74
2022/08/12 12:10:07;;;;;;;3.72;0.90;;;27.80;64.20;;;;;;5075826;28;20048;-73
2022/08/12 12:12:33;;;;;;;3.30;0.90;;;27.90;64.90;;;;;;5055904;28;20123;-73
2022/08/12 12:14:59;;;;;;;1.45;1.00;;;27.90;64.00;;;;;;5076048;28;20492;-73
2022/08/12 12:17:25;;;;;;;1.20;0.80;;;28.00;64.60;;;;;;5074779;28;20059;-73
2022/08/12 12:19:52;;;;;;;2.65;1.30;;;28.00;63.00;;;;;;5074789;28;20041;-73
2022/08/12 12:22:20;;;;;;;1.95;1.00;;;28.00;63.30;;;;;;5075754;28;20036;-73
2022/08/12 12:24:46;;;;;;;1.73;0.80;;;28.10;63.90;;;;;;5075651;28;20049;-73
2022/08/12 12:27:12;;;;;;;1.70;0.80;;;28.10;62.80;;;;;;5074660;28;20139;-74
2022/08/12 12:29:38;;;;;;;2.88;0.82;;;28.20;62.30;;;;;;5075826;28;20106;-73
2022/08/12 12:32:04;;;;;;;1.95;0.88;;;28.20;61.50;;;;;;5074645;28;20397;-73
2022/08/12 12:34:29;;;;;;;2.10;0.98;;;28.20;61.20;;;;;;5075448;28;20073;-74
2022/08/12 12:36:55;;;;;;;1.00;0.90;;;28.20;61.90;;;;;;5075621;28;20053;-74
2022/08/12 12:39:21;;;;;;;1.25;0.90;;;28.30;61.60;;;;;;5074952;28;20045;-74
2022/08/12 12:41:46;;;;;;;3.83;0.85;;;28.30;60.90;;;;;;5074432;28;20110;-75
2022/08/12 12:44:12;;;;;;;6.10;1.00;;;28.30;59.20;;;;;;5057555;28;20041;-74
2022/08/12 12:46:38;;;;;;;2.28;0.90;;;28.40;59.60;;;;;;5074150;28;20044;-74
2022/08/12 12:49:04;;;;;;;4.53;1.05;;;28.40;59.40;;;;;;5075300;28;20047;-75
2022/08/12 12:51:29;;;;;;;3.05;0.90;;;28.50;59.40;;;;;;5057330;28;20033;-74
2022/08/12 12:53:56;;;;;;;1.60;0.80;;;28.50;59.00;;;;;;5073819;28;20495;-74
2022/08/12 12:56:23;;;;;;;1.75;0.80;;;28.50;58.80;;;;;;5041399;28;20049;-73
2022/08/12 12:58:50;;;;;;;3.45;0.90;;;28.50;59.70;;;;;;5074200;28;20102;-73
2022/08/12 13:01:24;;;;;;;2.25;1.00;;;28.60;60.10;;;;;;5075161;28;20128;-73
2022/08/12 13:03:56;;;;;;;2.17;0.85;;;28.60;60.10;;;;;;5075235;28;20138;-73
2022/08/12 13:06:28;;;;;;;2.58;0.85;;;28.60;60.30;;;;;;5057367;28;20044;-75
2022/08/12 13:08:58;;;;;;;1.10;0.88;;;28.70;59.00;;;;;;5057848;28;20045;-73
2022/08/12 13:11:27;;;;;;;3.30;0.80;;;28.70;59.90;;;;;;5074802;28;20032;-74
2022/08/12 13:13:53;;;;;;;1.85;1.10;;;28.70;59.90;;;;;;5096513;28;20049;-74
2022/08/12 13:16:20;;;;;;;1.60;0.93;;;28.70;59.70;;;;;;5074002;28;20093;-74
2022/08/12 13:18:51;;;;;;;2.70;1.08;;;28.80;59.90;;;;;;5074223;28;20049;-73
2022/08/12 13:21:17;;;;;;;2.45;1.10;;;28.80;60.00;;;;;;5074338;28;20040;-73
2022/08/12 13:23:47;;;;;;;2.22;1.00;;;28.80;59.20;;;;;;5074704;28;20389;-73
2022/08/12 13:26:16;;;;;;;5.03;1.02;;;28.90;59.20;;;;;;5068057;28;20047;-73
2022/08/12 13:28:52;;;;;;;2.80;1.10;;;28.90;58.30;;;;;;5073810;28;20129;-74
2022/08/12 13:31:20;;;;;;;3.15;1.00;;;29.00;58.70;;;;;;5073962;28;20052;-73
2022/08/12 13:33:50;;;;;;;3.00;1.05;;;29.00;58.80;;;;;;5073777;28;20166;-73
2022/08/12 13:36:19;;;;;;;1.17;0.90;;;29.10;58.50;;;;;;5073926;28;20078;-72
2022/08/12 13:38:50;;;;;;;4.25;1.00;;;29.10;57.90;;;;;;5056944;28;20048;-73
2022/08/12 13:41:32;;;;;;;3.95;0.90;;;29.10;58.30;;;;;;5074016;28;20094;-73
2022/08/12 13:44:05;;;;;;;3.25;1.05;;;29.10;58.30;;;;;;5074621;28;20040;-73
2022/08/12 13:46:31;;;;;;;3.28;1.00;;;29.10;57.90;;;;;;5073930;28;20048;-74
2022/08/12 13:48:57;;;;;;;6.60;1.33;;;29.20;58.10;;;;;;5074704;28;20044;-74
2022/08/12 13:51:23;;;;;;;2.25;1.05;;;29.20;57.90;;;;;;5071006;28;20044;-74
2022/08/12 13:53:50;;;;;;;2.17;1.10;;;29.20;57.80;;;;;;5071876;28;20380;-75
2022/08/12 13:56:16;;;;;;;1.88;1.10;;;29.20;57.80;;;;;;5072855;28;20072;-73
2022/08/12 13:58:47;;;;;;;2.85;0.95;;;29.20;57.80;;;;;;5055311;28;20401;-74
2022/08/12 14:01:14;;;;;;;1.63;1.10;;;29.20;58.90;;;;;;5055773;28;20047;-74
2022/08/12 14:03:40;;;;;;;3.35;1.13;;;29.30;58.70;;;;;;5073099;28;20059;-74
2022/08/12 14:06:06;;;;;;;1.30;1.10;;;29.30;58.20;;;;;;5055157;28;20511;-74
2022/08/12 14:08:31;;;;;;;1.77;1.00;;;29.30;58.00;;;;;;5054818;28;20086;-74
2022/08/12 14:10:57;;;;;;;1.75;1.27;;;29.30;57.30;;;;;;5072681;28;20048;-75
2022/08/12 14:13:26;;;;;;;1.60;0.88;;;29.30;57.60;;;;;;5037992;28;20056;-74
2022/08/12 14:15:54;;;;;;;2.70;1.15;;;29.40;57.80;;;;;;5071617;28;20063;-76
2022/08/12 14:18:32;;;;;;;2.22;1.25;;;29.40;57.40;;;;;;5073091;28;20397;-74
2022/08/12 14:21:08;;;;;;;1.90;1.10;;;29.40;58.00;;;;;;5072633;28;20077;-74
2022/08/12 14:23:42;;;;;;;1.15;1.05;;;29.40;57.70;;;;;;5071078;28;20082;-74
2022/08/12 14:26:16;;;;;;;2.28;1.20;;;29.40;57.90;;;;;;5071475;28;20569;-74
2022/08/12 14:28:43;;;;;;;2.85;1.20;;;29.40;58.40;;;;;;5070664;28;20055;-74
2022/08/12 14:31:15;;;;;;;3.08;1.40;;;29.40;58.20;;;;;;5071713;28;20044;-74
2022/08/12 14:33:48;;;;;;;3.63;1.30;;;29.40;57.60;;;;;;5070892;28;20045;-74
2022/08/12 14:36:25;;;;;;;2.38;1.02;;;29.50;57.60;;;;;;5054337;28;20077;-74
2022/08/12 14:38:53;;;;;;;2.83;1.25;;;29.50;57.40;;;;;;5071123;28;20052;-74
2022/08/12 14:41:24;;;;;;;2.22;1.48;;;29.50;57.40;;;;;;5071357;28;20405;-75